createdAt,value
2023-03-06T00:00:35.816Z,43.27
2023-03-06T00:03:02.392Z,43.18
2023-03-06T00:05:29.143Z,42.92
2023-03-06T00:07:55.883Z,43.11
2023-03-06T00:10:24.883Z,43.18
2023-03-06T00:12:53.001Z,43.26
2023-03-06T00:15:20.146Z,43.10
2023-03-06T00:17:46.779Z,43.11
2023-03-06T00:20:14.082Z,43.28
2023-03-06T00:22:40.896Z,43.21
2023-03-06T00:25:08.647Z,43.38
2023-03-06T00:27:36.412Z,43.23
2023-03-06T00:30:03.003Z,43.22
2023-03-06T00:32:29.586Z,43.21
2023-03-06T00:34:56.605Z,43.40
2023-03-06T00:37:24.391Z,43.47
2023-03-06T00:39:50.975Z,43.23
2023-03-06T00:42:18.480Z,43.45
2023-03-06T00:44:45.560Z,43.21
2023-03-06T00:47:12.850Z,43.35
2023-03-06T00:49:39.399Z,43.33
2023-03-06T00:52:05.959Z,43.26
2023-03-06T00:54:32.563Z,43.31
2023-03-06T00:56:59.127Z,43.35
2023-03-06T00:59:25.780Z,43.52
2023-03-06T01:01:52.407Z,43.66
2023-03-06T01:04:19.178Z,43.27
2023-03-06T01:06:45.873Z,43.33
2023-03-06T01:09:12.438Z,43.39
2023-03-06T01:11:39.038Z,43.70
2023-03-06T01:14:05.640Z,43.72
2023-03-06T01:16:32.217Z,43.77
2023-03-06T01:18:59.108Z,43.51
2023-03-06T01:21:25.888Z,43.73
2023-03-06T01:23:52.452Z,43.51
2023-03-06T01:26:19.054Z,43.67
2023-03-06T01:28:45.610Z,43.61
2023-03-06T01:31:12.174Z,43.66
2023-03-06T01:33:38.752Z,43.69
2023-03-06T01:36:10.654Z,43.67
2023-03-06T01:38:37.283Z,43.70
2023-03-06T01:41:04.443Z,43.73
2023-03-06T01:43:36.013Z,43.80
2023-03-06T01:46:21.262Z,43.79
2023-03-06T01:48:48.878Z,43.85
2023-03-06T01:51:15.830Z,43.68
2023-03-06T01:53:43.392Z,43.94
2023-03-06T01:56:11.080Z,43.90
2023-03-06T01:58:38.282Z,43.66
2023-03-06T02:01:04.997Z,43.85
2023-03-06T02:03:32.024Z,43.82
2023-03-06T02:05:59.316Z,43.93
2023-03-06T02:08:27.274Z,43.89
2023-03-06T02:11:08.860Z,43.84
2023-03-06T02:13:36.482Z,43.94
2023-03-06T02:16:03.079Z,43.86
2023-03-06T02:18:29.735Z,43.61
2023-03-06T02:20:59.359Z,43.93
2023-03-06T02:23:49.103Z,43.75
2023-03-06T02:26:16.088Z,43.76
2023-03-06T02:28:43.113Z,43.76
2023-03-06T02:31:23.141Z,43.82
2023-03-06T02:34:04.912Z,43.83
2023-03-06T02:36:32.647Z,43.85
2023-03-06T02:38:59.852Z,43.88
2023-03-06T02:41:26.557Z,43.94
2023-03-06T02:43:53.229Z,43.76
2023-03-06T02:46:19.897Z,43.77
2023-03-06T02:48:46.506Z,43.73
2023-03-06T02:51:13.057Z,43.76
2023-03-06T02:53:39.624Z,43.76
2023-03-06T02:56:06.627Z,43.82
2023-03-06T02:58:33.190Z,43.83
2023-03-06T03:00:59.874Z,43.90
2023-03-06T03:03:26.474Z,43.73
2023-03-06T03:05:53.077Z,43.90
2023-03-06T03:08:19.647Z,43.72
2023-03-06T03:10:46.233Z,43.83
2023-03-06T03:13:12.916Z,43.90
2023-03-06T03:15:39.819Z,43.85
2023-03-06T03:18:06.414Z,43.63
2023-03-06T03:20:32.976Z,43.67
2023-03-06T03:22:59.581Z,43.68
2023-03-06T03:25:26.889Z,43.74
2023-03-06T03:27:53.634Z,43.93
2023-03-06T03:30:20.338Z,43.82
2023-03-06T03:32:46.978Z,43.73
2023-03-06T03:35:13.636Z,43.83
2023-03-06T03:37:40.277Z,43.79
2023-03-06T03:40:07.944Z,43.72
2023-03-06T03:42:34.743Z,43.70
2023-03-06T03:45:01.506Z,43.57
2023-03-06T03:47:28.074Z,43.92
2023-03-06T03:49:54.658Z,43.59
2023-03-06T03:52:21.311Z,43.74
2023-03-06T03:54:47.879Z,43.73
2023-03-06T03:57:14.458Z,43.70
2023-03-06T03:59:41.021Z,43.67
2023-03-06T04:02:07.657Z,43.58
2023-03-06T04:04:34.366Z,43.86
2023-03-06T04:07:00.980Z,43.77
2023-03-06T04:09:27.788Z,43.59
2023-03-06T04:11:54.424Z,43.58
2023-03-06T04:14:21.015Z,43.61
2023-03-06T04:16:47.617Z,43.57
2023-03-06T04:19:14.258Z,43.71
2023-03-06T04:21:40.876Z,43.61
2023-03-06T04:24:07.808Z,43.53
2023-03-06T04:26:34.432Z,43.74
2023-03-06T04:29:01.370Z,43.74
2023-03-06T04:31:28.050Z,43.50
2023-03-06T04:33:54.668Z,43.85
2023-03-06T04:36:30.538Z,43.68
2023-03-06T04:38:57.316Z,43.75
2023-03-06T04:41:23.936Z,43.90
2023-03-06T04:43:50.944Z,43.74
2023-03-06T04:46:17.598Z,43.71
2023-03-06T04:48:44.663Z,43.88
2023-03-06T04:51:15.107Z,43.73
2023-03-06T04:53:41.672Z,43.56
2023-03-06T04:56:08.597Z,43.77
2023-03-06T04:58:35.281Z,43.68
2023-03-06T05:01:02.063Z,43.77
2023-03-06T05:03:28.686Z,43.68
2023-03-06T05:05:55.486Z,43.78
2023-03-06T05:08:23.719Z,43.63
2023-03-06T05:10:56.064Z,43.67
2023-03-06T05:13:22.706Z,43.51
2023-03-06T05:15:49.365Z,43.72
2023-03-06T05:18:15.957Z,43.65
2023-03-06T05:20:43.016Z,43.77
2023-03-06T05:23:09.682Z,43.65
2023-03-06T05:25:39.272Z,43.62
2023-03-06T05:28:06.213Z,43.58
2023-03-06T05:30:32.929Z,43.74
2023-03-06T05:33:00.661Z,43.75
2023-03-06T05:35:27.341Z,43.69
2023-03-06T05:37:54.296Z,43.69
2023-03-06T05:40:21.093Z,43.66
2023-03-06T05:42:47.723Z,43.71
2023-03-06T05:45:14.334Z,43.66
2023-03-06T05:47:40.951Z,43.73
2023-03-06T05:50:08.385Z,43.57
2023-03-06T05:52:35.035Z,43.61
2023-03-06T05:55:01.702Z,43.79
2023-03-06T05:57:28.313Z,43.76
2023-03-06T05:59:54.939Z,43.59
2023-03-06T06:02:21.584Z,43.66
2023-03-06T06:04:48.168Z,43.43
2023-03-06T06:07:15.943Z,43.61
2023-03-06T06:09:45.354Z,43.95
2023-03-06T06:12:12.989Z,43.74
2023-03-06T06:14:39.556Z,43.56
2023-03-06T06:17:06.109Z,43.70
2023-03-06T06:19:32.691Z,43.61
2023-03-06T06:21:59.328Z,43.46
2023-03-06T06:24:26.957Z,43.26
2023-03-06T06:26:55.197Z,43.45
2023-03-06T06:29:23.103Z,43.63
2023-03-06T06:31:50.893Z,43.16
2023-03-06T06:34:18.271Z,43.47
2023-03-06T06:36:44.946Z,43.42
2023-03-06T06:39:14.300Z,43.34
2023-03-06T06:41:56.827Z,43.38
2023-03-06T06:44:26.274Z,43.35
2023-03-06T06:49:40.408Z,43.56
2023-03-06T06:52:07.540Z,43.43
2023-03-06T06:54:34.767Z,43.35
2023-03-06T06:57:01.465Z,43.57
2023-03-06T06:59:28.081Z,43.56
2023-03-06T07:01:54.697Z,43.40
2023-03-06T07:04:21.457Z,43.41
2023-03-06T07:06:48.405Z,42.99
2023-03-06T07:09:15.020Z,42.34
2023-03-06T07:11:41.665Z,42.16
2023-03-06T07:14:08.412Z,42.04
2023-03-06T07:16:35.112Z,42.08
2023-03-06T07:19:01.744Z,41.67
2023-03-06T07:21:28.377Z,41.42
2023-03-06T07:23:57.383Z,41.29
2023-03-06T07:26:25.353Z,40.95
2023-03-06T07:28:53.721Z,40.69
2023-03-06T07:31:22.365Z,40.35
2023-03-06T07:33:52.900Z,40.54
2023-03-06T07:36:20.352Z,40.41
2023-03-06T07:38:46.986Z,40.28
2023-03-06T07:41:15.315Z,40.37
2023-03-06T07:43:43.532Z,40.15
2023-03-06T07:46:10.760Z,40.14
2023-03-06T07:48:37.841Z,40.24
2023-03-06T07:51:22.382Z,40.30
2023-03-06T07:53:49.611Z,40.16
2023-03-06T07:56:16.587Z,40.06
2023-03-06T07:58:44.827Z,40.19
2023-03-06T08:01:19.919Z,40.24
2023-03-06T08:03:47.285Z,40.08
2023-03-06T08:06:25.012Z,40.13
2023-03-06T08:08:53.541Z,40.09
2023-03-06T08:11:21.721Z,40.29
2023-03-06T08:13:48.900Z,40.30
2023-03-06T08:16:17.456Z,40.25
2023-03-06T08:18:46.148Z,40.34
2023-03-06T08:21:15.264Z,40.60
2023-03-06T08:23:42.125Z,40.63
2023-03-06T08:26:12.359Z,40.46
2023-03-06T08:28:38.997Z,40.46
2023-03-06T08:33:51.616Z,42.19
2023-03-06T08:36:18.210Z,42.39
2023-03-06T08:38:44.803Z,42.53
2023-03-06T08:41:11.424Z,42.40
2023-03-06T08:43:38.000Z,42.54
2023-03-06T08:46:04.782Z,42.47
2023-03-06T08:48:31.499Z,42.45
2023-03-06T08:50:58.135Z,42.39
2023-03-06T08:53:40.482Z,42.62
2023-03-06T08:56:16.297Z,42.70
2023-03-06T08:58:42.974Z,42.85
2023-03-06T09:01:14.775Z,43.46
2023-03-06T09:03:41.373Z,43.56
2023-03-06T09:06:07.984Z,43.29
2023-03-06T09:08:34.636Z,43.51
2023-03-06T09:11:02.730Z,43.43
2023-03-06T09:13:29.302Z,42.69
2023-03-06T09:15:55.847Z,42.94
2023-03-06T09:18:22.407Z,42.77
2023-03-06T09:20:49.007Z,42.48
2023-03-06T09:23:16.328Z,42.77
2023-03-06T09:25:43.018Z,42.78
2023-03-06T09:28:11.968Z,42.76
2023-03-06T09:30:40.577Z,42.98
2023-03-06T09:33:07.182Z,42.71
2023-03-06T09:35:33.740Z,42.62
2023-03-06T09:38:00.314Z,42.38
2023-03-06T09:40:49.928Z,42.20
2023-03-06T09:43:28.871Z,42.38
2023-03-06T09:45:55.472Z,42.21
2023-03-06T09:48:29.143Z,42.17
2023-03-06T09:51:04.490Z,42.31
2023-03-06T09:54:13.360Z,42.55
2023-03-06T09:56:46.665Z,42.46
2023-03-06T09:59:17.370Z,42.58
2023-03-06T10:02:22.187Z,43.12
2023-03-06T10:04:55.714Z,44.12
2023-03-06T10:07:22.966Z,44.77
2023-03-06T10:09:57.614Z,45.09
2023-03-06T10:12:29.471Z,45.38
2023-03-06T10:15:02.060Z,45.66
2023-03-06T10:17:34.967Z,45.42
2023-03-06T10:20:06.945Z,45.54
2023-03-06T10:22:48.073Z,44.72
2023-03-06T10:25:46.893Z,44.83
2023-03-06T10:28:19.608Z,44.46
2023-03-06T10:31:19.969Z,44.29
2023-03-06T10:33:57.408Z,44.02
2023-03-06T10:36:28.375Z,44.11
2023-03-06T10:38:59.689Z,44.32
2023-03-06T10:41:35.799Z,44.19
2023-03-06T10:44:05.299Z,43.63
2023-03-06T10:46:43.400Z,43.40
2023-03-06T10:49:26.634Z,43.70
2023-03-06T10:52:14.875Z,43.54
2023-03-06T10:54:44.449Z,43.68
2023-03-06T10:57:31.907Z,43.58
2023-03-06T11:00:05.285Z,43.12
2023-03-06T11:02:40.870Z,43.46
2023-03-06T11:05:19.219Z,43.92
2023-03-06T11:07:57.560Z,43.53
2023-03-06T11:10:24.491Z,43.12
2023-03-06T11:13:00.770Z,42.93
2023-03-06T11:15:28.536Z,43.05
2023-03-06T11:18:01.147Z,42.42
2023-03-06T11:20:50.374Z,42.53
2023-03-06T11:23:22.534Z,42.93
2023-03-06T11:26:03.056Z,42.82
2023-03-06T11:29:03.969Z,42.91
2023-03-06T11:32:09.431Z,42.99
2023-03-06T11:34:40.677Z,42.76
2023-03-06T11:37:13.551Z,43.00
2023-03-06T11:39:57.078Z,42.51
2023-03-06T11:42:27.959Z,42.96
2023-03-06T11:45:25.755Z,43.06
2023-03-06T11:48:00.105Z,42.91
2023-03-06T11:50:57.702Z,43.18
2023-03-06T11:53:33.530Z,43.02
2023-03-06T11:56:18.505Z,42.97
2023-03-06T11:58:56.510Z,42.90
2023-03-06T12:01:44.583Z,42.82
2023-03-06T12:04:20.007Z,43.17
2023-03-06T12:07:24.090Z,42.96
2023-03-06T12:10:38.534Z,43.18
2023-03-06T12:13:27.744Z,43.28
2023-03-06T12:16:18.340Z,43.25
2023-03-06T12:18:59.379Z,43.65
2023-03-06T12:21:34.747Z,43.26
2023-03-06T12:24:26.165Z,43.22
2023-03-06T12:27:07.590Z,43.13
2023-03-06T12:29:52.049Z,43.30
2023-03-06T12:32:40.283Z,43.30
2023-03-06T12:35:19.045Z,43.35
2023-03-06T12:38:04.035Z,42.64
2023-03-06T12:40:39.378Z,43.08
2023-03-06T12:43:05.949Z,43.17
2023-03-06T12:45:39.900Z,43.25
2023-03-06T12:48:15.364Z,43.48
2023-03-06T12:50:44.550Z,43.32
2023-03-06T12:53:27.678Z,43.26
2023-03-06T12:55:54.982Z,43.89
2023-03-06T12:58:29.215Z,43.75
2023-03-06T13:01:26.746Z,43.55
2023-03-06T13:04:06.080Z,43.46
2023-03-06T13:06:56.867Z,43.70
2023-03-06T13:09:50.999Z,43.61
2023-03-06T13:12:38.499Z,43.68
2023-03-06T13:15:36.961Z,43.44
2023-03-06T13:18:21.938Z,43.43
2023-03-06T13:20:52.449Z,43.54
2023-03-06T13:23:34.521Z,43.27
2023-03-06T13:26:08.481Z,42.99
2023-03-06T13:28:46.125Z,42.88
2023-03-06T13:31:26.584Z,42.65
2023-03-06T13:33:59.401Z,42.83
2023-03-06T13:36:28.572Z,42.65
2023-03-06T13:39:12.103Z,42.59
2023-03-06T13:41:59.721Z,43.12
2023-03-06T13:44:27.102Z,42.68
2023-03-06T13:47:03.964Z,42.19
2023-03-06T13:49:30.843Z,42.61
2023-03-06T13:52:10.788Z,43.66
2023-03-06T13:55:15.175Z,43.64
2023-03-06T13:57:56.446Z,43.31
2023-03-06T14:00:57.037Z,43.43
2023-03-06T14:03:51.610Z,43.31
2023-03-06T14:06:42.917Z,42.97
2023-03-06T14:09:29.520Z,43.26
2023-03-06T14:12:18.210Z,43.52
2023-03-06T14:14:49.095Z,43.41
2023-03-06T14:17:23.360Z,43.00
2023-03-06T14:19:50.329Z,43.40
2023-03-06T14:22:18.988Z,43.32
2023-03-06T14:25:03.257Z,43.28
2023-03-06T14:27:42.535Z,42.93
2023-03-06T14:30:12.894Z,42.73
2023-03-06T14:32:40.218Z,42.83
2023-03-06T14:35:07.386Z,42.53
2023-03-06T14:37:35.938Z,42.11
2023-03-06T14:40:09.588Z,42.62
2023-03-06T14:42:37.352Z,42.78
2023-03-06T14:45:16.650Z,42.83
2023-03-06T14:47:43.769Z,42.66
2023-03-06T14:50:27.472Z,42.50
2023-03-06T14:53:00.058Z,42.61
2023-03-06T14:55:28.550Z,42.55
2023-03-06T14:58:03.499Z,42.26
2023-03-06T15:00:44.961Z,42.32
2023-03-06T15:03:20.944Z,42.58
2023-03-06T15:05:48.524Z,42.77
2023-03-06T15:08:20.244Z,42.67
2023-03-06T15:11:01.595Z,42.64
2023-03-06T15:13:30.327Z,42.89
2023-03-06T15:16:13.308Z,42.76
2023-03-06T15:18:53.790Z,42.76
2023-03-06T15:21:22.005Z,42.76
2023-03-06T15:23:50.340Z,42.82
2023-03-06T15:26:29.335Z,42.87
2023-03-06T15:29:08.998Z,42.97
2023-03-06T15:31:41.390Z,42.76
2023-03-06T15:34:09.193Z,42.63
2023-03-06T15:36:37.913Z,42.63
2023-03-06T15:39:30.575Z,42.61
2023-03-06T15:42:00.137Z,42.46
2023-03-06T15:44:27.332Z,42.44
2023-03-06T15:47:06.608Z,43.90
2023-03-06T15:49:37.938Z,43.71
2023-03-06T15:52:06.129Z,43.34
2023-03-06T15:54:33.158Z,43.01
2023-03-06T15:56:59.901Z,43.03
2023-03-06T15:59:33.304Z,43.29
2023-03-06T16:02:10.467Z,43.11
2023-03-06T16:04:37.077Z,42.99
2023-03-06T16:07:03.770Z,42.94
2023-03-06T16:09:30.306Z,42.82
2023-03-06T16:11:56.852Z,42.87
2023-03-06T16:14:26.613Z,42.91
2023-03-06T16:16:56.787Z,42.98
2023-03-06T16:19:27.191Z,43.14
2023-03-06T16:21:55.320Z,42.88
2023-03-06T16:24:22.018Z,43.05
2023-03-06T16:26:52.629Z,42.75
2023-03-06T16:29:23.007Z,42.73
2023-03-06T16:31:50.079Z,42.47
2023-03-06T16:34:17.091Z,42.30
2023-03-06T16:36:43.671Z,42.86
2023-03-06T16:39:18.614Z,43.00
2023-03-06T16:41:49.331Z,42.34
2023-03-06T16:44:16.025Z,42.38
2023-03-06T16:46:45.882Z,42.30
2023-03-06T16:49:23.571Z,42.36
2023-03-06T16:51:50.816Z,42.23
2023-03-06T16:54:17.895Z,42.58
2023-03-06T16:56:44.998Z,42.47
2023-03-06T16:59:12.277Z,42.30
2023-03-06T17:01:42.649Z,42.10
2023-03-06T17:04:09.399Z,42.31
2023-03-06T17:06:35.995Z,42.21
2023-03-06T17:09:02.649Z,41.76
2023-03-06T17:11:29.461Z,41.87
2023-03-06T17:13:56.072Z,42.34
2023-03-06T17:16:22.864Z,42.36
2023-03-06T17:18:49.753Z,42.67
2023-03-06T17:21:16.686Z,42.70
2023-03-06T17:23:44.538Z,42.65
2023-03-06T17:26:14.196Z,42.69
2023-03-06T17:28:41.517Z,43.33
2023-03-06T17:31:15.947Z,43.44
2023-03-06T17:33:42.797Z,43.73
2023-03-06T17:36:09.907Z,43.22
2023-03-06T17:38:36.583Z,43.59
2023-03-06T17:41:04.494Z,43.60
2023-03-06T17:43:31.644Z,43.48
2023-03-06T17:46:02.585Z,43.50
2023-03-06T17:48:29.175Z,43.55
2023-03-06T17:50:56.217Z,43.20
2023-03-06T17:53:24.907Z,42.85
2023-03-06T17:55:51.481Z,43.07
2023-03-06T17:58:22.812Z,43.28
2023-03-06T18:00:49.479Z,43.41
2023-03-06T18:03:16.106Z,43.33
2023-03-06T18:05:42.737Z,43.48
2023-03-06T18:08:10.303Z,43.32
2023-03-06T18:10:41.129Z,43.52
2023-03-06T18:13:08.572Z,44.63
2023-03-06T18:15:38.925Z,44.85
2023-03-06T18:18:05.569Z,44.94
2023-03-06T18:20:32.866Z,44.70
2023-03-06T18:23:03.453Z,44.69
2023-03-06T18:25:34.182Z,44.91
2023-03-06T18:28:00.739Z,44.84
2023-03-06T18:30:27.379Z,44.67
2023-03-06T18:32:54.511Z,44.56
2023-03-06T18:35:21.670Z,44.28
2023-03-06T18:37:50.553Z,44.24
2023-03-06T18:40:17.159Z,44.01
2023-03-06T18:42:43.773Z,43.76
2023-03-06T18:45:11.213Z,43.86
2023-03-06T18:47:37.823Z,44.01
2023-03-06T18:50:06.971Z,43.88
2023-03-06T18:52:34.252Z,44.06
2023-03-06T18:55:00.832Z,44.13
2023-03-06T18:57:30.443Z,43.82
2023-03-06T18:59:57.182Z,43.48
2023-03-06T19:02:23.794Z,43.71
2023-03-06T19:04:50.394Z,43.54
2023-03-06T19:07:17.167Z,43.59
2023-03-06T19:09:44.444Z,43.53
2023-03-06T19:12:11.552Z,43.81
2023-03-06T19:14:38.162Z,43.75
2023-03-06T19:17:04.800Z,43.96
2023-03-06T19:19:31.355Z,43.80
2023-03-06T19:21:58.493Z,43.73
2023-03-06T19:24:25.159Z,43.55
2023-03-06T19:26:52.275Z,43.86
2023-03-06T19:29:18.857Z,43.70
2023-03-06T19:31:45.461Z,43.72
2023-03-06T19:34:12.084Z,44.02
2023-03-06T19:36:40.688Z,43.79
2023-03-06T19:39:07.987Z,43.87
2023-03-06T19:41:35.025Z,44.00
2023-03-06T19:44:05.902Z,44.09
2023-03-06T19:46:33.087Z,43.91
2023-03-06T19:49:01.637Z,43.86
2023-03-06T19:51:31.390Z,43.80
2023-03-06T19:53:58.156Z,44.06
2023-03-06T19:56:26.792Z,44.20
2023-03-06T19:58:56.251Z,44.17
2023-03-06T20:01:24.940Z,44.13
2023-03-06T20:04:00.070Z,43.68
2023-03-06T20:06:28.640Z,43.83
2023-03-06T20:08:55.342Z,43.65
2023-03-06T20:11:27.162Z,44.41
2023-03-06T20:13:53.987Z,44.17
2023-03-06T20:16:20.668Z,44.69
2023-03-06T20:18:47.257Z,45.43
2023-03-06T20:21:14.407Z,45.16
2023-03-06T20:23:41.430Z,44.66
2023-03-06T20:26:11.811Z,44.22
2023-03-06T20:28:39.914Z,44.45
2023-03-06T20:31:16.521Z,43.55
2023-03-06T20:33:46.163Z,43.40
2023-03-06T20:36:20.311Z,43.27
2023-03-06T20:38:47.482Z,43.35
2023-03-06T20:41:18.820Z,43.06
2023-03-06T20:43:45.578Z,42.86
2023-03-06T20:46:13.320Z,43.01
2023-03-06T20:48:41.145Z,42.99
2023-03-06T20:51:13.175Z,43.20
2023-03-06T20:53:39.743Z,42.99
2023-03-06T20:56:06.649Z,42.95
2023-03-06T20:58:33.347Z,43.11
2023-03-06T21:01:02.229Z,43.34
2023-03-06T21:03:29.603Z,43.21
2023-03-06T21:05:56.473Z,43.24
2023-03-06T21:08:23.250Z,43.25
2023-03-06T21:10:50.631Z,43.53
2023-03-06T21:13:18.023Z,43.39
2023-03-06T21:15:47.346Z,43.07
2023-03-06T21:18:16.382Z,43.34
2023-03-06T21:20:42.931Z,43.26
2023-03-06T21:23:09.818Z,43.09
2023-03-06T21:25:36.464Z,43.04
2023-03-06T21:28:03.156Z,43.20
2023-03-06T21:30:30.266Z,43.46
2023-03-06T21:32:56.843Z,43.34
2023-03-06T21:35:23.453Z,43.16
2023-03-06T21:37:50.027Z,43.19
2023-03-06T21:40:16.649Z,43.19
2023-03-06T21:42:43.261Z,43.23
2023-03-06T21:45:10.501Z,43.16
2023-03-06T21:47:38.823Z,43.11
2023-03-06T21:50:07.786Z,43.16
2023-03-06T21:52:34.396Z,43.23
2023-03-06T21:55:00.965Z,43.49
2023-03-06T21:57:27.845Z,43.52
2023-03-06T21:59:58.975Z,43.90
2023-03-06T22:02:25.572Z,43.61
2023-03-06T22:04:52.752Z,43.60
2023-03-06T22:07:22.966Z,43.46
2023-03-06T22:09:52.776Z,43.43
2023-03-06T22:12:19.818Z,43.19
2023-03-06T22:14:46.525Z,43.40
2023-03-06T22:17:13.635Z,43.68
2023-03-06T22:19:40.191Z,43.51
2023-03-06T22:22:07.593Z,43.67
2023-03-06T22:24:35.367Z,43.65
2023-03-06T22:27:01.948Z,43.44
2023-03-06T22:29:28.525Z,43.39
2023-03-06T22:31:55.113Z,43.21
2023-03-06T22:34:21.760Z,43.38
2023-03-06T22:36:48.344Z,43.35
2023-03-06T22:39:15.237Z,43.57
2023-03-06T22:41:41.849Z,43.36
2023-03-06T22:44:15.886Z,43.25
2023-03-06T22:46:42.844Z,43.24
2023-03-06T22:49:11.524Z,43.33
2023-03-06T22:51:38.307Z,43.35
2023-03-06T22:54:05.609Z,43.39
2023-03-06T22:56:36.050Z,43.38
2023-03-06T22:59:02.938Z,42.92
2023-03-06T23:01:33.289Z,42.71
2023-03-06T23:04:02.312Z,43.26
2023-03-06T23:06:30.444Z,43.17
2023-03-06T23:08:59.424Z,43.31
2023-03-06T23:11:27.956Z,43.19
2023-03-06T23:13:55.071Z,43.01
2023-03-06T23:16:21.774Z,43.10
2023-03-06T23:18:48.429Z,42.71
2023-03-06T23:21:17.003Z,42.78
2023-03-06T23:23:50.304Z,43.03
2023-03-06T23:26:18.201Z,42.90
2023-03-06T23:28:47.138Z,42.93
2023-03-06T23:31:16.715Z,42.71
2023-03-06T23:33:43.585Z,43.04
2023-03-06T23:36:13.179Z,43.04
2023-03-06T23:38:40.253Z,42.86
2023-03-06T23:41:09.449Z,43.11
2023-03-06T23:43:36.423Z,43.06
2023-03-06T23:46:03.279Z,42.88
2023-03-06T23:48:29.936Z,43.08
2023-03-06T23:50:57.561Z,43.04
2023-03-06T23:53:24.255Z,43.10
2023-03-06T23:55:52.319Z,42.97
2023-03-06T23:58:25.938Z,43.31
